Time;durP1;ratioP1;P1;durP2;ratioP2;P2;SDS_P1;SDS_P2;PMS_P1;PMS_P2;Temp;Humidity;BMP_temperature;BMP_pressure;BME280_temperature;BME280_humidity;BME280_pressure;Samples;Min_cycle;Max_cycle;Signal;HPM_P1;HPM_P2
2023/05/10 00:01:23;;;;;;;10.38;7.97;;;13.00;99.90;;;;;;4981811;28;20589;-68
2023/05/10 00:03:48;;;;;;;10.98;8.50;;;12.90;99.90;;;;;;4970133;28;20074;-68
2023/05/10 00:06:15;;;;;;;11.07;8.55;;;;;;;;;;4973460;28;20098;-68
2023/05/10 00:08:40;;;;;;;12.18;9.00;;;;;;;;;;4973864;28;20797;-68
2023/05/10 00:11:06;;;;;;;11.00;8.73;;;;;;;;;;4972886;28;20046;-68
2023/05/10 00:13:33;;;;;;;12.35;8.85;;;;;;;;;;4966362;28;20043;-67
2023/05/10 00:15:59;;;;;;;12.27;9.75;;;;;;;;;;4975005;28;20485;-68
2023/05/10 00:18:25;;;;;;;14.30;9.68;;;;;;;;;;4991793;28;20455;-68
2023/05/10 00:20:51;;;;;;;10.98;9.02;;;;;;;;;;4980013;28;20046;-67
2023/05/10 00:23:17;;;;;;;14.43;10.32;;;;;;;;;;4976928;28;20058;-68
2023/05/10 00:25:43;;;;;;;16.73;10.55;;;;;;;;;;4990022;28;20074;-68
2023/05/10 00:28:08;;;;;;;13.45;9.90;;;13.00;99.90;;;;;;4978252;28;20037;-68
2023/05/10 00:30:34;;;;;;;14.38;10.35;;;13.10;99.90;;;;;;4974490;28;20408;-68
2023/05/10 00:33:00;;;;;;;16.67;10.98;;;;;;;;;;4993878;28;20046;-68
2023/05/10 00:35:26;;;;;;;16.00;10.43;;;13.00;99.90;;;;;;4980621;28;20046;-68
2023/05/10 00:37:52;;;;;;;17.30;11.23;;;;;;;;;;4975183;28;20042;-67
2023/05/10 00:40:18;;;;;;;16.60;10.82;;;;;;;;;;4973170;28;20108;-68
2023/05/10 00:42:43;;;;;;;15.10;10.30;;;13.10;99.90;;;;;;4971649;28;20081;-68
2023/05/10 00:45:09;;;;;;;15.25;10.35;;;12.90;99.90;;;;;;4995913;28;20455;-68
2023/05/10 00:47:35;;;;;;;15.65;10.57;;;;;;;;;;4976864;28;20508;-68
2023/05/10 00:50:01;;;;;;;16.58;10.25;;;12.90;99.90;;;;;;4997416;28;20415;-68
2023/05/10 00:52:29;;;;;;;15.60;10.95;;;13.30;99.90;;;;;;4977480;28;20046;-68
2023/05/10 00:54:54;;;;;;;19.35;11.38;;;12.90;99.90;;;;;;4994679;28;20435;-68
2023/05/10 00:57:21;;;;;;;14.98;10.70;;;13.10;99.90;;;;;;4972283;28;20041;-68
2023/05/10 00:59:47;;;;;;;18.23;10.60;;;;;;;;;;4982956;28;20046;-68
2023/05/10 01:02:13;;;;;;;18.33;10.68;;;13.00;99.90;;;;;;4978713;28;20103;-68
2023/05/10 01:04:39;;;;;;;16.75;11.35;;;;;;;;;;4982622;28;20455;-68
2023/05/10 01:07:05;;;;;;;16.95;10.95;;;12.80;99.90;;;;;;4979592;28;20046;-68
2023/05/10 01:09:31;;;;;;;15.90;10.15;;;12.90;99.90;;;;;;4984978;28;20496;-68
2023/05/10 01:11:57;;;;;;;20.05;11.07;;;;;;;;;;4974991;28;20110;-67
2023/05/10 01:14:24;;;;;;;17.98;10.10;;;12.90;99.90;;;;;;4993986;28;20090;-68
2023/05/10 01:16:50;;;;;;;18.00;11.23;;;12.90;99.90;;;;;;4983996;28;20076;-68
2023/05/10 01:19:28;;;;;;;14.90;10.68;;;13.10;99.90;;;;;;4979520;28;20603;-68
2023/05/10 01:22:12;;;;;;;16.17;9.80;;;13.00;99.90;;;;;;4981020;28;20041;-68
2023/05/10 01:25:14;;;;;;;14.02;9.98;;;12.80;99.90;;;;;;4997432;28;20563;-68
2023/05/10 01:27:51;;;;;;;17.33;10.63;;;13.00;99.90;;;;;;4981927;28;20045;-69
2023/05/10 01:30:27;;;;;;;14.30;9.90;;;13.10;99.90;;;;;;4978479;28;20050;-69
2023/05/10 01:33:04;;;;;;;15.77;10.05;;;13.00;99.90;;;;;;4985084;28;20044;-68
2023/05/10 01:35:41;;;;;;;15.30;10.40;;;12.80;99.90;;;;;;4993897;28;20061;-69
2023/05/10 01:38:20;;;;;;;15.25;10.50;;;12.70;99.90;;;;;;4974971;28;20097;-69
2023/05/10 01:41:03;;;;;;;13.73;9.52;;;12.80;99.90;;;;;;4988433;28;20038;-69
2023/05/10 01:43:36;;;;;;;14.23;9.63;;;12.80;99.90;;;;;;4975034;28;20803;-69
2023/05/10 01:46:10;;;;;;;13.07;9.55;;;13.10;99.90;;;;;;4984504;28;20141;-68
2023/05/10 01:48:43;;;;;;;12.75;9.32;;;12.90;99.90;;;;;;4984407;28;20073;-68
2023/05/10 01:51:10;;;;;;;12.30;9.25;;;12.90;99.90;;;;;;4979361;28;20065;-68
2023/05/10 01:53:38;;;;;;;13.93;9.82;;;12.80;99.90;;;;;;4992452;28;20038;-68
2023/05/10 01:56:05;;;;;;;11.30;9.13;;;12.90;99.90;;;;;;4959939;28;20162;-68
2023/05/10 01:58:34;;;;;;;12.52;8.90;;;12.70;99.90;;;;;;4979418;28;20053;-67
2023/05/10 02:01:03;;;;;;;13.00;9.45;;;12.70;99.90;;;;;;4979208;28;20111;-68
2023/05/10 02:03:30;;;;;;;13.07;9.25;;;12.90;99.90;;;;;;5004083;28;20068;-67
2023/05/10 02:05:56;;;;;;;13.25;9.80;;;;;;;;;;4987340;28;20567;-69
2023/05/10 02:08:23;;;;;;;13.15;10.38;;;;;;;;;;4982466;28;20484;-69
2023/05/10 02:10:52;;;;;;;13.90;9.77;;;12.80;99.90;;;;;;4984119;28;20515;-68
2023/05/10 02:13:19;;;;;;;12.57;8.68;;;12.90;99.90;;;;;;4997622;28;20050;-68
2023/05/10 02:15:47;;;;;;;11.57;8.63;;;12.90;99.90;;;;;;4979605;28;20129;-68
2023/05/10 02:18:15;;;;;;;9.60;7.82;;;12.90;99.90;;;;;;4983180;28;20042;-68
2023/05/10 02:20:42;;;;;;;9.20;7.70;;;12.90;99.90;;;;;;5000337;28;20045;-68
2023/05/10 02:23:09;;;;;;;9.18;7.50;;;;;;;;;;4981137;28;20137;-68
2023/05/10 02:25:36;;;;;;;10.60;7.70;;;;;;;;;;4982177;28;20092;-68
2023/05/10 02:28:04;;;;;;;11.90;7.53;;;12.70;99.90;;;;;;4974155;28;20046;-68
2023/05/10 02:30:32;;;;;;;11.93;8.27;;;12.80;99.90;;;;;;4960262;28;20039;-68
2023/05/10 02:32:58;;;;;;;7.82;6.78;;;12.70;99.90;;;;;;4974232;28;20065;-68
2023/05/10 02:35:26;;;;;;;9.68;6.85;;;12.90;99.90;;;;;;4980904;28;20480;-68
2023/05/10 02:37:52;;;;;;;8.10;6.28;;;12.90;99.90;;;;;;4967233;28;20042;-68
2023/05/10 02:40:21;;;;;;;8.75;6.13;;;12.70;99.90;;;;;;4979929;28;20065;-68
2023/05/10 02:42:48;;;;;;;10.82;6.55;;;12.80;99.90;;;;;;4986120;28;20488;-68
2023/05/10 02:45:21;;;;;;;9.55;6.15;;;12.80;99.90;;;;;;4996972;28;20062;-67
2023/05/10 02:47:47;;;;;;;9.35;6.70;;;12.70;99.90;;;;;;4981492;28;20073;-69
2023/05/10 02:50:13;;;;;;;8.02;5.60;;;12.80;99.90;;;;;;5000978;28;20100;-68
2023/05/10 02:52:53;;;;;;;7.32;5.20;;;12.80;99.90;;;;;;4975504;28;20045;-67
2023/05/10 02:55:25;;;;;;;12.73;5.85;;;12.80;99.90;;;;;;4977429;28;20826;-68
2023/05/10 02:57:56;;;;;;;8.90;5.47;;;12.80;99.90;;;;;;4976079;28;20806;-68
2023/05/10 03:00:22;;;;;;;5.88;4.88;;;;;;;;;;5002617;28;20180;-69
2023/05/10 03:02:48;;;;;;;6.80;5.20;;;12.70;99.90;;;;;;5002525;28;20558;-69
2023/05/10 03:05:13;;;;;;;7.07;5.80;;;12.80;99.90;;;;;;4971692;28;20038;-68
2023/05/10 03:07:39;;;;;;;6.93;5.82;;;;;;;;;;4997502;28;20552;-68
2023/05/10 03:10:05;;;;;;;6.35;5.30;;;12.60;99.90;;;;;;5003254;28;20057;-68
2023/05/10 03:13:07;;;;;;;7.65;5.20;;;12.80;99.90;;;;;;4974611;28;20050;-68
2023/05/10 03:15:51;;;;;;;6.15;5.07;;;12.80;99.90;;;;;;4987221;28;20069;-68
2023/05/10 03:18:28;;;;;;;6.50;4.93;;;12.70;99.90;;;;;;4978596;28;20054;-68
2023/05/10 03:20:59;;;;;;;7.53;5.60;;;12.80;99.90;;;;;;4981466;28;20065;-69
2023/05/10 03:23:28;;;;;;;6.55;5.60;;;;;;;;;;4979089;28;20054;-68
2023/05/10 03:25:54;;;;;;;6.80;5.70;;;;;;;;;;4993072;28;20512;-68
2023/05/10 03:28:21;;;;;;;6.90;5.97;;;12.80;99.90;;;;;;4980704;28;20061;-68
2023/05/10 03:30:47;;;;;;;6.85;5.38;;;;;;;;;;4983641;28;20125;-68
2023/05/10 03:33:14;;;;;;;8.07;6.25;;;;;;;;;;4980041;28;20041;-69
2023/05/10 03:35:40;;;;;;;9.55;6.63;;;;;;;;;;4995013;28;20045;-68
2023/05/10 03:38:06;;;;;;;6.85;6.00;;;;;;;;;;4991822;28;20377;-68
2023/05/10 03:40:31;;;;;;;10.27;7.47;;;12.60;99.90;;;;;;4984671;28;20061;-68
2023/05/10 03:42:58;;;;;;;6.68;5.97;;;12.80;99.90;;;;;;4972416;28;20408;-68
2023/05/10 03:45:24;;;;;;;7.47;6.15;;;;;;;;;;4954007;28;20049;-68
2023/05/10 03:47:50;;;;;;;7.13;5.75;;;;;;;;;;4972996;28;20050;-69
2023/05/10 03:50:17;;;;;;;8.10;6.22;;;;;;;;;;4995116;28;20050;-68
2023/05/10 03:52:44;;;;;;;8.98;6.10;;;;;;;;;;4987881;28;20097;-68
2023/05/10 03:55:10;;;;;;;8.65;6.13;;;;;;;;;;4996615;28;20042;-68
2023/05/10 03:57:36;;;;;;;8.00;6.75;;;;;;;;;;4985617;28;20060;-68
2023/05/10 04:00:02;;;;;;;8.30;7.03;;;12.60;99.90;;;;;;4960282;28;20049;-68
2023/05/10 04:02:29;;;;;;;9.48;6.28;;;;;;;;;;4974498;28;20072;-68
2023/05/10 04:04:55;;;;;;;7.70;6.15;;;;;;;;;;4993037;28;20077;-68
2023/05/10 04:07:21;;;;;;;10.48;7.50;;;;;;;;;;4992292;28;20543;-68
2023/05/10 04:09:47;;;;;;;8.07;6.63;;;;;;;;;;4977526;28;20050;-68
2023/05/10 04:12:13;;;;;;;7.70;6.05;;;;;;;;;;4990404;28;20084;-68
2023/05/10 04:14:39;;;;;;;8.43;6.50;;;;;;;;;;4978851;28;20408;-68
2023/05/10 04:17:05;;;;;;;8.10;7.05;;;;;;;;;;4994646;28;20050;-68
2023/05/10 04:19:31;;;;;;;8.40;6.00;;;12.60;99.90;;;;;;4996142;28;20415;-68
2023/05/10 04:21:57;;;;;;;7.40;5.78;;;12.70;99.90;;;;;;4980486;28;20037;-68
2023/05/10 04:24:23;;;;;;;7.82;5.80;;;;;;;;;;4989555;28;20034;-68
2023/05/10 04:26:49;;;;;;;11.35;6.07;;;;;;;;;;4990366;28;20125;-69
2023/05/10 04:29:15;;;;;;;6.80;6.10;;;;;;;;;;4976114;28;20042;-68
2023/05/10 04:31:41;;;;;;;6.95;5.40;;;;;;;;;;4978457;28;20058;-67
2023/05/10 04:34:07;;;;;;;5.43;4.85;;;;;;;;;;4991664;28;20100;-68
2023/05/10 04:36:35;;;;;;;5.47;4.75;;;12.70;99.90;;;;;;4970959;28;20053;-68
2023/05/10 04:39:02;;;;;;;6.07;5.47;;;12.70;99.90;;;;;;4979446;28;20057;-68
2023/05/10 04:41:28;;;;;;;7.32;5.07;;;;;;;;;;4991354;28;20042;-68
2023/05/10 04:43:54;;;;;;;11.80;7.45;;;;;;;;;;4970466;28;20061;-67
2023/05/10 04:46:20;;;;;;;7.55;5.78;;;12.70;99.90;;;;;;4954671;28;20057;-68
2023/05/10 04:48:46;;;;;;;6.97;5.97;;;;;;;;;;4995744;28;20046;-68
2023/05/10 04:51:12;;;;;;;8.52;5.95;;;;;;;;;;4972959;28;20052;-68
2023/05/10 04:53:38;;;;;;;6.43;5.60;;;;;;;;;;4988452;28;20551;-68
2023/05/10 04:56:04;;;;;;;7.00;6.30;;;;;;;;;;4996278;28;20810;-68
2023/05/10 04:58:30;;;;;;;7.82;6.07;;;12.70;99.90;;;;;;4975034;28;20046;-68
2023/05/10 05:00:55;;;;;;;6.90;6.20;;;12.70;99.90;;;;;;4973728;28;20117;-68
2023/05/10 05:03:22;;;;;;;8.43;6.28;;;;;;;;;;4973979;28;20054;-68
2023/05/10 05:05:48;;;;;;;8.13;6.88;;;12.70;99.90;;;;;;4993526;28;20050;-68
2023/05/10 05:08:14;;;;;;;8.18;6.53;;;;;;;;;;4973764;28;20042;-68
2023/05/10 05:10:40;;;;;;;8.93;6.50;;;;;;;;;;4988861;28;20121;-68
2023/05/10 05:13:06;;;;;;;8.80;6.63;;;;;;;;;;4989077;28;20927;-68
2023/05/10 05:15:32;;;;;;;7.45;6.18;;;;;;;;;;4975944;28;20058;-68
2023/05/10 05:17:57;;;;;;;8.57;6.93;;;12.70;99.90;;;;;;4976750;28;20096;-68
2023/05/10 05:20:23;;;;;;;10.88;7.82;;;12.60;99.90;;;;;;4980346;28;20057;-68
2023/05/10 05:22:49;;;;;;;10.23;7.68;;;;;;;;;;4974748;28;20121;-68
2023/05/10 05:25:15;;;;;;;7.97;7.05;;;;;;;;;;4993467;28;20050;-68
2023/05/10 05:27:41;;;;;;;8.20;7.28;;;;;;;;;;4977790;28;20052;-69
2023/05/10 05:30:07;;;;;;;7.55;6.45;;;12.60;99.90;;;;;;4997184;28;20500;-68
2023/05/10 05:32:33;;;;;;;6.25;5.65;;;12.70;99.90;;;;;;4974409;28;20046;-68
2023/05/10 05:34:59;;;;;;;7.15;5.47;;;;;;;;;;4976227;28;20038;-68
2023/05/10 05:37:25;;;;;;;7.18;5.28;;;;;;;;;;4972232;28;20153;-68
2023/05/10 05:39:50;;;;;;;5.53;4.55;;;12.60;99.90;;;;;;4974807;28;20129;-68
2023/05/10 05:42:18;;;;;;;4.70;4.20;;;;;;;;;;4987059;28;20038;-69
2023/05/10 05:44:44;;;;;;;7.10;4.72;;;;;;;;;;4971624;28;20125;-68
2023/05/10 05:47:10;;;;;;;4.95;4.15;;;;;;;;;;4976896;28;20662;-69
2023/05/10 05:49:36;;;;;;;5.22;4.50;;;;;;;;;;4974660;28;20049;-68
2023/05/10 05:52:03;;;;;;;6.20;4.43;;;12.70;99.90;;;;;;4996273;28;20050;-68
2023/05/10 05:54:30;;;;;;;5.20;4.00;;;12.80;99.90;;;;;;4980525;28;20144;-67
2023/05/10 05:57:00;;;;;;;5.13;4.45;;;12.70;99.90;;;;;;4977942;28;20050;-68
2023/05/10 05:59:26;;;;;;;7.40;4.60;;;;;;;;;;4979871;28;20122;-68
2023/05/10 06:01:52;;;;;;;4.80;4.03;;;;;;;;;;4981804;28;20045;-68
2023/05/10 06:04:18;;;;;;;5.15;4.35;;;;;;;;;;4978682;28;20046;-68
2023/05/10 06:06:45;;;;;;;7.25;4.50;;;;;;;;;;4999864;28;20037;-69
2023/05/10 06:09:11;;;;;;;7.88;4.85;;;;;;;;;;4979152;28;20038;-69
2023/05/10 06:11:36;;;;;;;6.45;4.88;;;12.90;99.90;;;;;;4975601;28;20057;-69
2023/05/10 06:14:04;;;;;;;4.25;3.78;;;13.00;99.90;;;;;;4994536;28;20054;-69
2023/05/10 06:16:30;;;;;;;5.80;3.88;;;;;;;;;;4976765;28;20054;-70
2023/05/10 06:18:56;;;;;;;5.10;4.30;;;;;;;;;;4996747;28;20038;-70
2023/05/10 06:21:22;;;;;;;5.53;4.10;;;;;;;;;;4979369;28;20514;-71
2023/05/10 06:23:48;;;;;;;6.05;3.72;;;14.80;99.90;;;;;;4969842;28;20046;-70
2023/05/10 06:26:13;;;;;;;5.95;3.92;;;13.00;99.90;;;;;;4971822;28;20046;-70
2023/05/10 06:28:39;;;;;;;7.20;3.75;;;13.10;99.90;;;;;;4982689;28;20053;-70
2023/05/10 06:31:06;;;;;;;5.88;4.55;;;13.00;99.90;;;;;;4978690;28;20049;-70
2023/05/10 06:33:32;;;;;;;7.13;4.63;;;;;;;;;;4994499;28;20034;-71
2023/05/10 06:35:58;;;;;;;9.02;5.25;;;;;;;;;;4975004;28;20047;-70
2023/05/10 06:38:24;;;;;;;6.25;5.25;;;13.10;99.90;;;;;;4975947;28;20046;-70
2023/05/10 06:40:49;;;;;;;12.18;6.05;;;13.00;99.90;;;;;;4976644;28;20050;-70
2023/05/10 06:43:15;;;;;;;7.07;5.10;;;;;;;;;;4964231;28;20045;-69
2023/05/10 06:45:41;;;;;;;7.30;5.28;;;;;;;;;;4979293;28;20045;-71
2023/05/10 06:48:08;;;;;;;7.20;6.03;;;;;;;;;;4995861;28;20331;-72
2023/05/10 06:50:33;;;;;;;6.95;5.93;;;13.30;99.90;;;;;;4979290;28;20128;-72
2023/05/10 06:52:59;;;;;;;8.48;5.50;;;13.30;99.90;;;;;;4975273;28;20117;-71
2023/05/10 06:55:26;;;;;;;6.30;5.07;;;13.70;99.90;;;;;;4973156;28;20511;-71
2023/05/10 06:57:52;;;;;;;7.18;5.55;;;;;;;;;;4973111;28;20041;-71
2023/05/10 07:00:18;;;;;;;7.68;5.10;;;13.20;99.90;;;;;;4975582;28;20054;-71
2023/05/10 07:02:44;;;;;;;6.25;4.40;;;;;;;;;;4995505;28;20038;-71
2023/05/10 07:05:11;;;;;;;6.18;4.45;;;;;;;;;;4983219;28;20065;-71
2023/05/10 07:07:37;;;;;;;6.35;4.90;;;13.30;99.90;;;;;;4971576;28;20037;-71
2023/05/10 07:10:03;;;;;;;5.95;4.22;;;;;;;;;;4980874;28;20096;-69
2023/05/10 07:12:29;;;;;;;8.07;5.20;;;;;;;;;;4995675;28;20069;-70
2023/05/10 07:14:54;;;;;;;5.55;4.07;;;13.20;99.90;;;;;;4981546;28;20097;-70
2023/05/10 07:17:21;;;;;;;9.93;4.28;;;;;;;;;;4976297;28;20046;-71
2023/05/10 07:19:47;;;;;;;8.40;4.65;;;;;;;;;;4978044;28;20046;-71
2023/05/10 07:22:13;;;;;;;4.53;3.55;;;;;;;;;;4981966;28;20045;-70
2023/05/10 07:24:38;;;;;;;4.13;3.33;;;;;;;;;;4999759;28;20046;-70
2023/05/10 07:27:05;;;;;;;4.85;3.55;;;;;;;;;;4978073;28;20313;-70
2023/05/10 07:29:31;;;;;;;4.63;3.38;;;;;;;;;;4997327;28;20077;-70
2023/05/10 07:31:57;;;;;;;4.47;3.55;;;;;;;;;;4996818;28;20046;-69
2023/05/10 07:34:23;;;;;;;6.05;3.70;;;;;;;;;;4979036;28;20570;-78
2023/05/10 07:36:49;;;;;;;4.47;3.55;;;;;;;;;;4979504;28;20042;-75
2023/05/10 07:39:15;;;;;;;4.68;3.88;;;;;;;;;;4984089;28;20496;-74
2023/05/10 07:41:41;;;;;;;5.45;3.65;;;;;;;;;;4976759;28;20046;-71
2023/05/10 07:44:07;;;;;;;5.65;3.65;;;;;;;;;;4978626;28;20046;-70
2023/05/10 07:46:33;;;;;;;6.20;4.15;;;;;;;;;;4971857;28;20038;-71
2023/05/10 07:48:59;;;;;;;6.10;3.40;;;;;;;;;;4976236;28;20780;-72
2023/05/10 07:51:24;;;;;;;5.43;3.45;;;13.50;99.90;;;;;;4970772;28;20112;-71
2023/05/10 07:53:50;;;;;;;4.82;3.30;;;;;;;;;;4997828;28;20041;-72
2023/05/10 07:56:29;;;;;;;5.85;3.63;;;13.60;99.90;;;;;;4977150;28;20053;-71
2023/05/10 07:59:06;;;;;;;4.93;3.25;;;13.60;99.90;;;;;;4971354;28;20054;-71
2023/05/10 08:01:33;;;;;;;5.93;3.90;;;13.60;99.90;;;;;;4973294;28;20064;-72
2023/05/10 08:04:00;;;;;;;6.38;3.80;;;;;;;;;;4975414;28;20046;-69
2023/05/10 08:06:29;;;;;;;4.97;3.35;;;;;;;;;;4960606;28;20098;-71
2023/05/10 08:08:55;;;;;;;4.85;3.78;;;13.80;99.90;;;;;;4976374;28;20175;-71
2023/05/10 08:11:21;;;;;;;4.85;3.95;;;13.80;99.90;;;;;;4959236;28;20511;-71
2023/05/10 08:13:48;;;;;;;4.53;3.53;;;14.00;99.90;;;;;;4977083;28;20073;-72
2023/05/10 08:16:14;;;;;;;4.03;3.30;;;;;;;;;;4971998;28;20548;-70
2023/05/10 08:18:40;;;;;;;3.85;3.42;;;14.10;99.90;;;;;;4973590;28;20042;-71
2023/05/10 08:21:06;;;;;;;4.80;3.83;;;13.80;99.90;;;;;;4982095;28;20100;-71
2023/05/10 08:23:32;;;;;;;5.10;3.75;;;14.10;99.90;;;;;;4973368;28;20042;-71
2023/05/10 08:25:58;;;;;;;5.13;4.00;;;;;;;;;;4969913;28;20089;-72
2023/05/10 08:28:24;;;;;;;4.22;3.67;;;;;;;;;;4976460;28;20073;-71
2023/05/10 08:30:50;;;;;;;6.00;3.63;;;;;;;;;;4976163;28;20100;-71
2023/05/10 08:33:18;;;;;;;5.25;4.03;;;14.00;99.90;;;;;;4987861;28;20061;-72
2023/05/10 08:35:44;;;;;;;7.68;4.50;;;;;;;;;;4971560;28;20547;-71
2023/05/10 08:38:10;;;;;;;6.50;4.32;;;;;;;;;;4974477;28;20084;-70
2023/05/10 08:40:37;;;;;;;5.05;4.32;;;13.90;99.90;;;;;;4977635;28;20155;-70
2023/05/10 08:43:08;;;;;;;4.13;3.40;;;14.00;99.90;;;;;;4977256;28;20124;-72
2023/05/10 08:45:38;;;;;;;5.47;4.05;;;13.90;99.90;;;;;;4990395;28;20050;-71
2023/05/10 08:48:06;;;;;;;6.38;3.78;;;13.90;99.90;;;;;;4992502;28;20128;-71
2023/05/10 08:50:35;;;;;;;6.00;4.03;;;13.90;99.90;;;;;;4974323;28;20057;-70
2023/05/10 08:53:05;;;;;;;6.80;3.83;;;13.90;99.90;;;;;;4992333;28;20072;-69
2023/05/10 08:55:33;;;;;;;6.05;4.20;;;14.00;99.90;;;;;;4970811;28;20390;-69
2023/05/10 08:57:59;;;;;;;5.38;4.35;;;13.90;99.90;;;;;;4988629;28;20057;-69
2023/05/10 09:00:28;;;;;;;4.80;3.83;;;14.00;99.90;;;;;;4970471;28;20165;-71
2023/05/10 09:02:53;;;;;;;5.03;3.95;;;14.20;99.90;;;;;;4974010;28;20052;-70
2023/05/10 09:05:19;;;;;;;7.13;4.30;;;;;;;;;;4980181;28;20042;-70
2023/05/10 09:07:45;;;;;;;5.57;3.85;;;;;;;;;;4996344;28;20072;-71
2023/05/10 09:10:13;;;;;;;5.53;4.32;;;14.30;99.90;;;;;;4978771;28;20045;-70
2023/05/10 09:12:38;;;;;;;6.47;4.22;;;14.20;99.90;;;;;;4973933;28;20042;-71
2023/05/10 09:15:06;;;;;;;5.55;4.07;;;14.30;99.90;;;;;;4969927;28;20420;-70
2023/05/10 09:17:34;;;;;;;6.80;3.83;;;14.40;99.90;;;;;;4973187;28;20060;-71
2023/05/10 09:20:03;;;;;;;5.43;3.97;;;14.30;99.90;;;;;;4981683;28;20574;-71
2023/05/10 09:22:33;;;;;;;5.90;4.10;;;14.60;99.90;;;;;;4977289;28;20516;-69
2023/05/10 09:25:15;;;;;;;5.15;3.75;;;14.70;99.90;;;;;;4972358;28;20089;-71
2023/05/10 09:27:46;;;;;;;4.55;3.40;;;14.50;99.90;;;;;;4975756;28;20042;-71
2023/05/10 09:30:16;;;;;;;4.65;3.60;;;14.60;99.90;;;;;;4994797;28;20050;-71
2023/05/10 09:32:43;;;;;;;6.43;3.58;;;14.70;99.90;;;;;;4980006;28;20061;-70
2023/05/10 09:35:15;;;;;;;5.03;3.08;;;14.70;99.90;;;;;;4974022;28;20586;-71
2023/05/10 09:37:45;;;;;;;4.55;3.35;;;14.60;99.90;;;;;;4999045;28;20126;-69
2023/05/10 09:40:13;;;;;;;6.43;3.30;;;14.70;99.90;;;;;;4972484;28;20445;-70
2023/05/10 09:42:40;;;;;;;6.68;3.92;;;14.80;99.90;;;;;;4960002;28;20061;-71
2023/05/10 09:45:07;;;;;;;6.05;3.97;;;15.00;99.90;;;;;;4980612;28;20487;-71
2023/05/10 09:47:34;;;;;;;7.65;4.10;;;14.90;99.90;;;;;;4997520;28;20045;-70
2023/05/10 09:50:03;;;;;;;6.88;4.45;;;;;;;;;;4977709;28;20121;-72
2023/05/10 09:52:50;;;;;;;7.20;4.57;;;15.00;99.90;;;;;;4978864;28;20403;-72
2023/05/10 09:55:17;;;;;;;5.55;4.20;;;;;;;;;;4974205;28;20042;-72
2023/05/10 09:57:43;;;;;;;6.85;4.50;;;;;;;;;;4975571;28;20042;-71
2023/05/10 10:00:12;;;;;;;6.45;4.00;;;15.20;99.90;;;;;;4983169;28;20547;-71
2023/05/10 10:02:39;;;;;;;6.60;4.13;;;15.00;99.90;;;;;;4975109;28;20064;-71
2023/05/10 10:05:06;;;;;;;6.65;4.47;;;15.20;99.90;;;;;;4975742;28;20243;-72
2023/05/10 10:07:32;;;;;;;5.45;4.35;;;15.20;99.90;;;;;;4971892;28;20956;-70
2023/05/10 10:09:59;;;;;;;6.30;4.70;;;15.10;99.90;;;;;;4983316;28;20080;-72
2023/05/10 10:12:25;;;;;;;6.70;4.78;;;15.20;99.90;;;;;;4983774;28;20048;-72
2023/05/10 10:14:51;;;;;;;6.10;4.82;;;;;;;;;;4977136;28;20286;-71
2023/05/10 10:17:19;;;;;;;4.90;3.80;;;15.10;99.90;;;;;;4979250;28;20078;-70
2023/05/10 10:19:46;;;;;;;5.75;4.13;;;15.10;99.90;;;;;;4978702;28;21658;-71
2023/05/10 10:22:12;;;;;;;5.30;3.80;;;;;;;;;;4979779;28;20038;-71
2023/05/10 10:24:40;;;;;;;5.80;4.20;;;15.00;99.90;;;;;;4973767;28;20048;-70
2023/05/10 10:27:23;;;;;;;6.70;4.47;;;15.00;99.90;;;;;;4977904;28;20503;-71
2023/05/10 10:30:29;;;;;;;6.47;4.45;;;14.80;99.90;;;;;;4997045;28;20038;-73
2023/05/10 10:32:56;;;;;;;8.15;4.60;;;;;;;;;;4978168;28;20452;-72
2023/05/10 10:35:22;;;;;;;5.57;4.22;;;;;;;;;;4978632;28;20058;-72
2023/05/10 10:37:50;;;;;;;8.48;5.10;;;14.80;99.90;;;;;;4978847;28;20039;-73
2023/05/10 10:40:33;;;;;;;5.50;4.00;;;15.10;99.90;;;;;;4980040;28;20564;-73
2023/05/10 10:43:25;;;;;;;5.35;4.22;;;15.00;99.90;;;;;;4977537;28;20054;-73
2023/05/10 10:46:11;;;;;;;5.18;3.80;;;15.20;99.90;;;;;;4975453;28;21021;-69
2023/05/10 10:48:36;;;;;;;;;;;15.20;99.90;;;;;;4978135;28;20054;-68
2023/05/10 10:51:02;;;;;;;5.80;4.60;;;15.20;99.90;;;;;;4960049;28;20312;-68
2023/05/10 10:53:29;;;;;;;4.35;3.55;;;;;;;;;;4980044;28;20125;-69
2023/05/10 10:56:13;;;;;;;6.53;4.43;;;15.30;99.90;;;;;;4977079;28;20133;-69
2023/05/10 10:58:39;;;;;;;7.78;4.47;;;15.30;99.90;;;;;;4980549;28;20030;-70
2023/05/10 11:01:21;;;;;;;6.55;3.85;;;15.30;99.90;;;;;;4990364;28;20050;-72
2023/05/10 11:03:58;;;;;;;5.90;4.35;;;15.40;99.90;;;;;;4980175;28;20054;-73
2023/05/10 11:06:35;;;;;;;8.00;4.18;;;15.40;99.90;;;;;;4969931;28;20053;-72
2023/05/10 11:09:11;;;;;;;7.72;3.80;;;15.30;99.90;;;;;;4980852;28;20042;-73
2023/05/10 11:11:50;;;;;;;6.40;3.88;;;15.30;99.90;;;;;;4979429;28;20043;-71
2023/05/10 11:14:21;;;;;;;7.15;3.97;;;15.30;99.90;;;;;;4997455;28;20050;-72
2023/05/10 11:16:47;;;;;;;6.20;3.53;;;;;;;;;;4968458;28;20061;-73
2023/05/10 11:19:15;;;;;;;7.45;4.13;;;15.20;99.90;;;;;;4977000;28;20038;-72
2023/05/10 11:22:04;;;;;;;4.18;3.78;;;15.10;99.90;;;;;;4977587;28;20097;-72
2023/05/10 11:24:30;;;;;;;5.93;4.05;;;15.10;99.90;;;;;;4989021;28;20050;-72
2023/05/10 11:26:56;;;;;;;6.78;4.30;;;15.10;99.90;;;;;;4974343;28;20048;-73
2023/05/10 11:29:22;;;;;;;7.78;3.90;;;;;;;;;;4972317;28;20156;-73
2023/05/10 11:31:48;;;;;;;6.63;4.38;;;15.10;99.90;;;;;;4974315;28;20597;-72
2023/05/10 11:41:28;;;;;;;10.55;5.65;;;14.60;99.90;;;;;;5092626;23;20050;-72
2023/05/10 11:43:54;;;;;;;12.43;6.47;;;14.90;99.90;;;;;;4990542;28;20042;-72
2023/05/10 11:46:22;;;;;;;9.27;6.65;;;14.70;99.90;;;;;;4995348;28;20125;-72
2023/05/10 11:48:53;;;;;;;11.63;7.18;;;15.00;99.90;;;;;;4992558;28;20126;-73
2023/05/10 11:51:23;;;;;;;12.40;8.27;;;14.80;99.90;;;;;;4978226;28;20799;-72
2023/05/10 11:53:53;;;;;;;13.25;7.95;;;14.80;99.90;;;;;;4997853;28;20838;-73
2023/05/10 11:56:21;;;;;;;15.35;8.30;;;14.90;99.90;;;;;;4976559;28;20092;-71
2023/05/10 11:58:55;;;;;;;13.50;8.23;;;14.80;99.90;;;;;;4973542;28;20038;-73
2023/05/10 12:01:22;;;;;;;14.93;8.17;;;14.70;99.90;;;;;;4995691;28;20078;-72
2023/05/10 12:03:49;;;;;;;13.30;8.65;;;14.90;99.90;;;;;;4996601;28;20042;-73
2023/05/10 12:06:16;;;;;;;13.23;8.25;;;;;;;;;;4974528;28;20046;-71
2023/05/10 12:08:46;;;;;;;10.55;7.20;;;14.70;99.90;;;;;;4976229;28;20527;-71
2023/05/10 12:11:13;;;;;;;14.32;9.40;;;14.80;99.90;;;;;;4995263;28;20392;-71
2023/05/10 12:13:40;;;;;;;16.17;8.35;;;14.90;99.90;;;;;;4979639;28;21212;-72
2023/05/10 12:16:14;;;;;;;16.60;9.18;;;14.80;99.90;;;;;;4995032;28;20038;-71
2023/05/10 12:18:41;;;;;;;15.10;9.23;;;14.80;99.90;;;;;;4977687;28;20056;-70
2023/05/10 12:21:06;;;;;;;14.95;9.77;;;14.70;99.90;;;;;;4974633;28;20050;-71
2023/05/10 12:23:32;;;;;;;15.18;9.02;;;14.70;99.90;;;;;;4990826;28;20042;-71
2023/05/10 12:26:03;;;;;;;14.50;8.32;;;14.90;99.90;;;;;;4988821;28;20042;-71
2023/05/10 12:28:31;;;;;;;15.15;8.75;;;14.80;99.90;;;;;;4974779;28;20481;-71
2023/05/10 12:30:57;;;;;;;14.90;9.73;;;15.00;99.90;;;;;;5000563;28;20050;-71
2023/05/10 12:33:23;;;;;;;18.20;9.85;;;;;;;;;;4988189;28;20052;-71
2023/05/10 12:35:51;;;;;;;19.10;10.15;;;14.90;99.90;;;;;;4990924;28;20496;-71
2023/05/10 12:38:38;;;;;;;16.35;9.55;;;15.10;99.90;;;;;;4973689;28;20046;-71
2023/05/10 12:41:09;;;;;;;17.70;10.90;;;15.00;99.90;;;;;;4969410;28;20066;-70
2023/05/10 12:43:36;;;;;;;14.52;9.80;;;15.20;99.90;;;;;;4974830;28;20065;-70
2023/05/10 12:46:12;;;;;;;15.57;9.40;;;15.20;99.90;;;;;;4982802;28;20050;-70
2023/05/10 12:48:39;;;;;;;15.88;10.25;;;15.40;99.90;;;;;;4969799;28;20500;-71
2023/05/10 12:51:09;;;;;;;12.60;8.32;;;15.20;99.90;;;;;;4980122;28;20049;-71
2023/05/10 12:53:35;;;;;;;14.65;8.80;;;15.40;99.90;;;;;;4979531;28;20096;-71
2023/05/10 12:56:01;;;;;;;13.70;8.32;;;;;;;;;;4983103;28;20037;-71
2023/05/10 12:58:27;;;;;;;12.13;7.65;;;15.30;99.90;;;;;;4979127;28;20177;-70
2023/05/10 13:00:53;;;;;;;16.80;8.48;;;15.30;99.90;;;;;;4982191;28;20054;-71
2023/05/10 13:03:19;;;;;;;15.52;9.13;;;;;;;;;;4973274;28;20050;-72
2023/05/10 13:05:45;;;;;;;16.48;8.52;;;;;;;;;;4975567;28;20606;-70
2023/05/10 13:08:11;;;;;;;26.10;9.13;;;;;;;;;;4989503;28;20148;-70
2023/05/10 13:10:37;;;;;;;12.48;7.75;;;15.30;99.90;;;;;;4975097;28;20046;-71
2023/05/10 13:13:02;;;;;;;12.00;7.07;;;15.30;99.90;;;;;;4974344;28;20316;-71
2023/05/10 13:15:28;;;;;;;13.50;8.27;;;15.30;99.90;;;;;;4977660;28;20093;-71
2023/05/10 13:17:54;;;;;;;14.00;7.28;;;;;;;;;;4977937;28;20101;-72
2023/05/10 13:20:20;;;;;;;15.73;8.57;;;;;;;;;;4972367;28;20060;-71
2023/05/10 13:22:46;;;;;;;14.88;8.70;;;15.40;99.90;;;;;;4974191;28;20048;-71
2023/05/10 13:25:12;;;;;;;12.50;8.15;;;;;;;;;;4989696;28;20403;-72
2023/05/10 13:27:40;;;;;;;24.90;13.27;;;15.40;99.90;;;;;;4995526;28;20034;-72
2023/05/10 13:30:07;;;;;;;23.38;12.27;;;15.30;99.90;;;;;;4976881;28;20096;-71
2023/05/10 13:32:33;;;;;;;15.68;9.32;;;15.30;99.90;;;;;;4982369;28;20042;-71
2023/05/10 13:34:59;;;;;;;14.45;9.85;;;;;;;;;;4981138;28;20484;-72
2023/05/10 13:37:25;;;;;;;16.77;9.98;;;;;;;;;;4989441;28;20056;-71